Time;durP1;ratioP1;P1;durP2;ratioP2;P2;SDS_P1;SDS_P2;PMS_P1;PMS_P2;Temp;Humidity;BMP_temperature;BMP_pressure;BME280_temperature;BME280_humidity;BME280_pressure;Samples;Min_cycle;Max_cycle;Signal;HPM_P1;HPM_P2
2022/10/21 00:00:50;;;;;;;4.28;1.48;;;;;;;7.45;100.00;99628.56;5173365;27;20071;-61
2022/10/21 00:03:17;;;;;;;2.80;1.42;;;;;;;7.41;100.00;99633.09;5173598;27;20046;-60
2022/10/21 00:05:43;;;;;;;5.53;1.83;;;;;;;7.30;100.00;99656.44;5173290;27;20046;-61
2022/10/21 00:08:09;;;;;;;9.38;1.88;;;;;;;7.19;100.00;99739.72;5173557;27;20525;-61
2022/10/21 00:10:36;;;;;;;4.53;1.20;;;;;;;7.35;100.00;99757.16;5173522;27;20172;-61
2022/10/21 00:13:02;;;;;;;3.35;1.35;;;;;;;7.30;100.00;99730.06;5173391;27;20058;-60
2022/10/21 00:15:28;;;;;;;1.48;1.30;;;;;;;7.22;100.00;99715.34;5173431;27;20050;-61
2022/10/21 00:17:55;;;;;;;5.53;1.45;;;;;;;7.19;100.00;99688.72;5173449;27;20050;-61
2022/10/21 00:20:22;;;;;;;5.80;1.67;;;;;;;7.20;100.00;99656.81;5173080;27;20050;-61
2022/10/21 00:22:48;;;;;;;3.63;1.33;;;;;;;7.11;100.00;99675.16;5172930;27;20109;-61
2022/10/21 00:25:14;;;;;;;2.70;1.52;;;;;;;7.10;100.00;99676.25;5172779;27;20482;-60
2022/10/21 00:27:40;;;;;;;3.88;1.67;;;;;;;7.10;100.00;99698.91;5172685;27;20067;-61
2022/10/21 00:30:08;;;;;;;2.53;1.60;;;;;;;7.05;100.00;99720.88;5173018;27;20046;-61
2022/10/21 00:32:35;;;;;;;4.20;1.80;;;;;;;7.03;100.00;99739.47;5172775;27;20054;-61
2022/10/21 00:35:02;;;;;;;4.72;1.42;;;;;;;7.12;100.00;99742.19;5172887;27;20050;-61
2022/10/21 00:37:29;;;;;;;3.65;1.52;;;;;;;7.03;100.00;99794.00;5172715;27;20046;-61
2022/10/21 00:39:55;;;;;;;3.03;1.50;;;;;;;7.05;100.00;99789.84;5172899;27;20057;-60
2022/10/21 00:42:22;;;;;;;2.25;1.50;;;;;;;7.09;100.00;99740.91;5172464;27;20054;-61
2022/10/21 00:45:28;;;;;;;9.82;2.30;;;;;;;7.05;100.00;99735.31;5172814;27;20042;-61
2022/10/21 00:48:00;;;;;;;6.68;2.35;;;;;;;7.06;100.00;99726.03;5164138;27;20087;-61
2022/10/21 00:50:33;;;;;;;3.97;1.55;;;;;;;7.04;100.00;99722.81;5172367;27;20060;-61
2022/10/21 00:53:00;;;;;;;5.07;1.75;;;;;;;7.05;100.00;99729.06;5172440;27;20144;-61
2022/10/21 00:55:31;;;;;;;4.82;2.20;;;;;;;7.06;100.00;99703.38;5172428;27;20053;-61
2022/10/21 00:57:59;;;;;;;6.60;2.70;;;;;;;7.05;100.00;99707.25;5172624;27;20093;-61
2022/10/21 01:00:25;;;;;;;3.42;1.40;;;;;;;7.04;100.00;99730.97;5172149;27;20053;-61
2022/10/21 01:02:51;;;;;;;4.80;1.60;;;;;;;7.05;100.00;99737.22;5172642;27;20130;-61
2022/10/21 01:05:18;;;;;;;4.30;1.65;;;;;;;7.02;100.00;99752.31;5172189;27;20101;-61
2022/10/21 01:07:47;;;;;;;5.20;1.70;;;;;;;7.03;100.00;99714.94;5172409;27;20054;-61
2022/10/21 01:10:13;;;;;;;2.72;1.50;;;;;;;7.10;100.00;99719.88;5172225;27;20054;-61
2022/10/21 01:12:51;;;;;;;5.22;2.00;;;;;;;7.07;100.00;99735.00;5172259;27;20050;-60
2022/10/21 01:15:24;;;;;;;2.72;1.25;;;;;;;7.11;100.00;99684.13;5172145;27;20072;-60
2022/10/21 01:17:59;;;;;;;5.38;1.55;;;;;;;6.97;100.00;99691.75;5172038;27;20132;-61
2022/10/21 01:20:43;;;;;;;1.15;1.10;;;;;;;7.17;100.00;99647.38;5172156;27;20053;-61
2022/10/21 01:23:45;;;;;;;6.63;1.85;;;;;;;7.14;100.00;99585.31;5171983;27;20052;-61
2022/10/21 01:26:27;;;;;;;2.75;1.40;;;;;;;7.13;100.00;99529.19;5172396;27;20083;-61
2022/10/21 01:29:17;;;;;;;2.10;1.40;;;;;;;7.13;100.00;99529.19;5172066;27;20050;-61
2022/10/21 01:31:50;;;;;;;2.35;1.08;;;;;;;7.19;100.00;99555.09;5171891;27;20050;-61
2022/10/21 01:34:23;;;;;;;1.83;1.27;;;;;;;7.25;100.00;99506.63;5172099;27;20471;-61
2022/10/21 01:36:54;;;;;;;5.47;1.45;;;;;;;7.31;100.00;99461.66;5171790;27;20461;-60
2022/10/21 01:39:26;;;;;;;7.15;1.55;;;;;;;7.23;100.00;99391.63;5172047;27;20099;-61
2022/10/21 01:41:59;;;;;;;3.55;1.40;;;;;;;7.22;100.00;99379.13;5171729;27;20052;-61
2022/10/21 01:44:30;;;;;;;1.47;0.97;;;;;;;7.29;100.00;99398.47;5171626;27;20498;-61
2022/10/21 01:47:00;;;;;;;2.67;1.00;;;;;;;7.20;100.00;99359.59;5171809;27;20052;-61
2022/10/21 01:49:31;;;;;;;3.22;1.17;;;;;;;7.25;100.00;99360.16;5171594;27;20049;-61
2022/10/21 01:51:59;;;;;;;2.22;1.30;;;;;;;7.34;100.00;99343.72;5171873;27;20435;-61
2022/10/21 01:54:30;;;;;;;1.02;0.90;;;;;;;7.31;100.00;99314.38;5171626;27;20053;-61
2022/10/21 01:56:58;;;;;;;2.85;1.10;;;;;;;7.20;100.00;99294.97;5171966;27;20077;-61
2022/10/21 01:59:28;;;;;;;4.28;1.70;;;;;;;7.29;100.00;99273.00;5171648;27;20417;-61
2022/10/21 02:01:56;;;;;;;3.55;1.60;;;;;;;7.28;100.00;99271.44;5171931;27;20432;-61
2022/10/21 02:04:25;;;;;;;2.03;1.35;;;;;;;7.23;100.00;99263.47;5171405;27;20050;-61
2022/10/21 02:06:52;;;;;;;1.80;1.10;;;;;;;7.27;100.00;99267.13;5171435;27;20050;-61
2022/10/21 02:09:18;;;;;;;4.32;1.30;;;;;;;7.22;100.00;99298.13;5171554;27;20191;-61
2022/10/21 02:11:48;;;;;;;1.55;0.85;;;;;;;7.19;100.00;99334.25;5171655;27;20050;-61
2022/10/21 02:14:19;;;;;;;1.17;0.90;;;;;;;7.17;100.00;99366.53;5175251;27;20054;-61
2022/10/21 02:16:47;;;;;;;1.65;1.05;;;;;;;7.14;100.00;99369.13;5174841;27;20102;-61
2022/10/21 02:19:17;;;;;;;6.13;1.10;;;;;;;7.13;100.00;99359.34;5174940;27;20082;-61
2022/10/21 02:21:46;;;;;;;2.67;1.33;;;;;;;7.14;100.00;99361.75;5174900;27;20100;-61
2022/10/21 02:24:19;;;;;;;3.30;1.55;;;;;;;7.16;100.00;99366.84;5175207;27;20064;-61
2022/10/21 02:26:45;;;;;;;2.28;1.35;;;;;;;7.12;100.00;99368.66;5174937;27;20056;-61
2022/10/21 02:29:13;;;;;;;1.95;1.15;;;;;;;6.98;100.00;99416.09;5174913;27;20046;-61
2022/10/21 02:31:50;;;;;;;1.73;1.00;;;;;;;7.02;100.00;99452.44;5174999;27;20046;-60
2022/10/21 02:34:28;;;;;;;2.92;1.52;;;;;;;7.03;100.00;99507.75;5174586;27;20539;-61
2022/10/21 02:37:03;;;;;;;2.47;1.38;;;;;;;7.04;100.00;99520.28;5174736;27;20141;-60
2022/10/21 02:39:34;;;;;;;2.92;1.70;;;;;;;7.01;100.00;99510.81;5174605;27;20081;-61
2022/10/21 02:42:03;;;;;;;2.17;1.40;;;;;;;7.02;100.00;99498.00;5174614;27;20086;-61
2022/10/21 02:44:30;;;;;;;2.10;1.33;;;;;;;7.03;100.00;99494.13;5174376;27;20050;-61
2022/10/21 02:46:56;;;;;;;2.50;1.50;;;;;;;7.12;100.00;99480.44;5174446;27;20450;-61
2022/10/21 02:49:22;;;;;;;4.57;1.80;;;;;;;7.08;100.00;99472.91;5174362;27;20094;-61
2022/10/21 02:51:49;;;;;;;6.43;1.70;;;;;;;7.10;100.00;99518.13;5174556;27;20046;-61
2022/10/21 02:54:16;;;;;;;2.80;1.60;;;;;;;7.20;100.00;99485.03;5174544;27;20046;-61
2022/10/21 02:56:42;;;;;;;4.70;1.55;;;;;;;6.98;100.00;99442.56;5174360;27;20050;-61
2022/10/21 02:59:08;;;;;;;2.65;1.30;;;;;;;7.05;100.00;99449.06;5174343;27;20050;-61
2022/10/21 03:01:35;;;;;;;2.55;1.55;;;;;;;7.05;100.00;99470.06;5174124;27;20093;-61
2022/10/21 03:04:01;;;;;;;3.35;1.67;;;;;;;7.02;100.00;99441.53;5174338;27;20089;-61
2022/10/21 03:06:27;;;;;;;3.05;1.55;;;;;;;7.11;100.00;99433.28;5174084;27;20050;-61
2022/10/21 03:08:53;;;;;;;4.10;1.40;;;;;;;7.04;100.00;99422.94;5174306;27;20046;-61
2022/10/21 03:11:20;;;;;;;3.30;1.52;;;;;;;7.03;100.00;99426.81;5174104;27;20053;-61
2022/10/21 03:13:47;;;;;;;1.92;1.50;;;;;;;7.13;100.00;99392.88;5174006;27;20096;-61
2022/10/21 03:16:13;;;;;;;5.43;1.67;;;;;;;7.12;100.00;99393.19;5173942;27;20057;-61
2022/10/21 03:18:39;;;;;;;1.70;1.02;;;;;;;7.13;100.00;99397.50;5174182;27;20547;-61
2022/10/21 03:21:06;;;;;;;2.97;1.77;;;;;;;7.18;100.00;99400.03;5173983;27;20086;-61
2022/10/21 03:23:32;;;;;;;2.35;1.30;;;;;;;7.17;100.00;99439.34;5172464;27;20050;-61
2022/10/21 03:25:58;;;;;;;3.78;1.45;;;;;;;7.16;100.00;99456.81;5173978;27;20073;-61
2022/10/21 03:28:25;;;;;;;3.53;1.38;;;;;;;7.17;100.00;99440.13;5173681;27;20473;-61
2022/10/21 03:30:51;;;;;;;2.88;1.20;;;;;;;7.21;100.00;99426.63;5173961;27;20050;-61
2022/10/21 03:33:17;;;;;;;4.80;1.40;;;;;;;7.16;100.00;99392.16;5173795;27;20105;-61
2022/10/21 03:35:44;;;;;;;2.10;1.35;;;;;;;7.28;100.00;99370.41;5173810;27;20506;-60
2022/10/21 03:38:10;;;;;;;2.33;1.50;;;;;;;7.27;100.00;99327.13;5173624;27;20101;-61
2022/10/21 03:40:36;;;;;;;2.67;1.23;;;;;;;7.24;100.00;99301.31;5173722;27;20528;-61
2022/10/21 03:43:03;;;;;;;2.00;1.30;;;;;;;7.29;100.00;99298.34;5173653;27;20054;-61
2022/10/21 03:45:30;;;;;;;1.75;1.30;;;;;;;7.32;100.00;99273.13;5173764;27;20050;-61
2022/10/21 03:47:56;;;;;;;5.13;1.52;;;;;;;7.34;100.00;99240.09;5173691;27;20042;-61
2022/10/21 03:50:22;;;;;;;3.78;1.88;;;;;;;7.30;100.00;99222.81;5173674;27;20046;-61
2022/10/21 03:52:48;;;;;;;2.28;1.25;;;;;;;7.30;100.00;99241.91;5173570;27;20082;-60
2022/10/21 03:55:16;;;;;;;1.67;1.48;;;;;;;7.28;100.00;99264.03;5173306;27;20050;-61
2022/10/21 03:57:42;;;;;;;2.10;1.67;;;;;;;7.27;100.00;99264.41;5173529;27;20089;-61
2022/10/21 04:00:09;;;;;;;2.25;1.27;;;;;;;7.30;100.00;99275.41;5173322;27;20050;-61
2022/10/21 04:02:36;;;;;;;3.15;1.42;;;;;;;7.29;100.00;99322.09;5173231;27;20046;-61
2022/10/21 04:05:02;;;;;;;2.63;1.63;;;;;;;7.25;100.00;99275.63;5173246;27;20052;-61
2022/10/21 04:07:28;;;;;;;3.13;1.42;;;;;;;7.26;100.00;99282.69;5173361;27;20046;-61
2022/10/21 04:09:54;;;;;;;3.35;1.33;;;;;;;7.30;100.00;99280.88;5173170;27;20054;-61
2022/10/21 04:12:21;;;;;;;3.10;1.10;;;;;;;7.30;100.00;99286.31;5173457;27;20053;-61
2022/10/21 04:14:47;;;;;;;4.32;1.20;;;;;;;7.25;100.00;99299.38;5172837;27;20050;-61
2022/10/21 04:17:13;;;;;;;3.30;1.67;;;;;;;7.23;100.00;99277.91;5172932;27;20063;-61
2022/10/21 04:19:40;;;;;;;3.38;1.40;;;;;;;7.30;100.00;99308.16;5173095;27;20046;-61
2022/10/21 04:22:07;;;;;;;2.83;1.50;;;;;;;7.30;100.00;99316.31;5172955;27;20428;-61
2022/10/21 04:24:33;;;;;;;5.13;2.08;;;;;;;7.20;100.00;99329.59;5172870;27;20061;-61
2022/10/21 04:27:00;;;;;;;4.20;1.85;;;;;;;7.24;100.00;99361.31;5172697;27;20079;-61
2022/10/21 04:29:26;;;;;;;3.70;1.65;;;;;;;7.20;100.00;99360.41;5172937;27;20089;-61
2022/10/21 04:31:52;;;;;;;4.50;1.48;;;;;;;7.21;100.00;99372.09;5172715;27;20082;-61
2022/10/21 04:34:18;;;;;;;2.90;1.88;;;;;;;7.25;100.00;99364.81;5172593;27;20057;-61
2022/10/21 04:36:45;;;;;;;2.90;1.30;;;;;;;7.23;100.00;99335.19;5172408;27;20066;-61
2022/10/21 04:39:12;;;;;;;2.88;1.55;;;;;;;7.21;100.00;99314.84;5172628;27;20412;-61
2022/10/21 04:41:38;;;;;;;3.20;1.52;;;;;;;7.20;100.00;99275.06;5172566;27;20061;-61
2022/10/21 04:44:05;;;;;;;2.58;1.27;;;;;;;7.26;100.00;99284.59;5172777;27;20054;-61
2022/10/21 04:46:31;;;;;;;4.20;1.13;;;;;;;7.27;100.00;99276.09;5172445;27;20042;-60
2022/10/21 04:48:57;;;;;;;8.30;1.90;;;;;;;7.24;100.00;99284.16;5172481;27;20085;-61
2022/10/21 04:51:24;;;;;;;4.03;1.40;;;;;;;7.34;100.00;99294.63;5172551;27;20133;-61
2022/10/21 04:53:51;;;;;;;6.70;2.65;;;;;;;7.32;100.00;99264.94;5172394;27;20075;-61
2022/10/21 04:56:17;;;;;;;5.05;2.72;;;;;;;7.30;100.00;99261.78;5172607;27;20454;-61
2022/10/21 04:58:43;;;;;;;3.38;2.35;;;;;;;7.32;100.00;99294.16;5172240;27;20042;-61
2022/10/21 05:01:09;;;;;;;7.18;2.45;;;;;;;7.44;100.00;99285.19;5172369;27;20113;-59
2022/10/21 05:03:35;;;;;;;5.15;1.73;;;;;;;7.45;100.00;99205.75;5172285;27;20054;-61
2022/10/21 05:06:02;;;;;;;5.65;1.63;;;;;;;7.48;100.00;99147.78;5172096;27;20394;-61
2022/10/21 05:08:28;;;;;;;1.23;1.10;;;;;;;7.44;100.00;99127.00;5171925;27;20050;-61
2022/10/21 05:10:58;;;;;;;2.03;1.42;;;;;;;7.48;100.00;99103.34;5172249;27;20102;-58
2022/10/21 05:13:25;;;;;;;1.90;1.42;;;;;;;7.49;100.00;99099.47;5172127;27;20482;-61
2022/10/21 05:15:51;;;;;;;3.25;1.90;;;;;;;7.51;100.00;99095.25;5172162;27;20081;-62
2022/10/21 05:18:17;;;;;;;2.40;1.50;;;;;;;7.54;100.00;99097.28;5171931;27;20050;-54
2022/10/21 05:20:49;;;;;;;4.32;1.70;;;;;;;7.55;100.00;99074.31;5172046;27;20079;-60
2022/10/21 05:23:16;;;;;;;2.35;1.60;;;;;;;7.59;100.00;99068.19;5172073;27;20042;-60
2022/10/21 05:25:43;;;;;;;2.80;1.80;;;;;;;7.63;100.00;99071.78;5172065;27;20424;-60
2022/10/21 05:28:10;;;;;;;3.83;2.40;;;;;;;7.61;100.00;99072.16;5172122;27;20042;-60
2022/10/21 05:30:36;;;;;;;3.38;2.25;;;;;;;7.58;100.00;99066.59;5171842;27;20046;-58
2022/10/21 05:33:03;;;;;;;9.60;2.38;;;;;;;7.62;100.00;99062.03;5171624;27;20050;-62
2022/10/21 05:35:29;;;;;;;11.68;2.28;;;;;;;7.63;100.00;99074.53;5171766;27;20050;-61
2022/10/21 05:37:55;;;;;;;3.65;1.98;;;;;;;7.58;100.00;99091.16;5172032;27;20070;-63
2022/10/21 05:40:22;;;;;;;10.13;3.95;;;;;;;7.71;100.00;99095.41;5171666;27;20446;-63
2022/10/21 05:42:49;;;;;;;7.82;4.57;;;;;;;7.72;100.00;99080.63;5171627;27;20050;-62
2022/10/21 05:45:16;;;;;;;7.15;3.88;;;;;;;7.82;100.00;99060.22;5171701;27;20435;-62
2022/10/21 05:47:43;;;;;;;6.10;3.58;;;;;;;7.80;100.00;99057.88;5173597;27;20425;-61
2022/10/21 05:50:10;;;;;;;7.28;3.40;;;;;;;7.86;100.00;99067.38;5175586;27;20042;-60
2022/10/21 05:52:37;;;;;;;6.45;3.80;;;;;;;7.77;100.00;99080.41;5175242;27;20552;-61
2022/10/21 05:55:04;;;;;;;10.65;4.60;;;;;;;7.88;100.00;99094.31;5174510;27;20050;-63
2022/10/21 05:57:31;;;;;;;6.40;2.92;;;;;;;7.93;100.00;99042.19;5174977;27;20072;-60
2022/10/21 05:59:57;;;;;;;14.65;4.10;;;;;;;7.94;100.00;99028.22;5173750;27;20046;-57
2022/10/21 06:02:24;;;;;;;9.73;3.90;;;;;;;8.00;100.00;99036.94;5175289;27;20133;-59
2022/10/21 06:04:51;;;;;;;6.82;3.33;;;;;;;7.99;100.00;99030.66;5174793;27;20065;-60
2022/10/21 06:07:17;;;;;;;7.05;2.58;;;;;;;7.97;100.00;99011.13;5174853;27;20046;-58
2022/10/21 06:09:43;;;;;;;5.82;2.42;;;;;;;8.04;100.00;98994.16;5174839;27;20081;-61
2022/10/21 06:12:09;;;;;;;5.85;2.70;;;;;;;7.99;100.00;98975.28;5175040;27;20543;-62
2022/10/21 06:14:36;;;;;;;14.73;2.83;;;;;;;8.05;100.00;98979.34;5175126;27;20046;-60
2022/10/21 06:17:02;;;;;;;5.60;2.25;;;;;;;8.08;100.00;98973.19;5175042;27;20088;-57
2022/10/21 06:19:29;;;;;;;6.63;3.08;;;;;;;8.10;100.00;98981.03;5175048;27;20046;-63
2022/10/21 06:21:56;;;;;;;7.93;2.47;;;;;;;8.14;100.00;98996.34;5174854;27;20111;-59
2022/10/21 06:24:23;;;;;;;4.97;2.83;;;;;;;8.15;100.00;98978.00;5175019;27;20050;-57
2022/10/21 06:26:49;;;;;;;8.23;2.92;;;;;;;8.27;100.00;98971.69;5174851;27;20046;-61
2022/10/21 06:29:16;;;;;;;6.95;3.10;;;;;;;8.28;100.00;98959.59;5174609;27;20042;-62
2022/10/21 06:31:42;;;;;;;18.40;8.35;;;;;;;8.28;100.00;98945.94;5174296;27;20049;-63
2022/10/21 06:34:08;;;;;;;29.23;14.57;;;;;;;8.45;100.00;98948.31;5174704;27;20122;-62
2022/10/21 06:36:37;;;;;;;22.40;11.05;;;;;;;8.46;100.00;98919.84;5174350;27;20133;-63
2022/10/21 06:39:03;;;;;;;27.08;12.73;;;;;;;8.39;100.00;98917.75;5174584;27;20072;-62
2022/10/21 06:41:29;;;;;;;54.33;32.70;;;;;;;8.48;100.00;98917.56;5174116;27;20054;-62
2022/10/21 06:43:55;;;;;;;20.25;7.43;;;;;;;8.51;100.00;98921.53;5174234;27;20054;-62
2022/10/21 06:46:22;;;;;;;11.77;3.80;;;;;;;8.44;100.00;98908.50;5174379;27;20046;-62
2022/10/21 06:48:48;;;;;;;17.67;4.82;;;;;;;8.57;100.00;98900.97;5174361;27;20452;-63
2022/10/21 06:51:18;;;;;;;21.45;5.18;;;;;;;8.62;100.00;98896.00;5174089;27;20046;-62
2022/10/21 06:53:45;;;;;;;14.52;2.60;;;;;;;8.57;100.00;98893.56;5174131;27;20522;-62
2022/10/21 06:56:15;;;;;;;14.40;3.70;;;;;;;8.67;100.00;98900.41;5174261;27;20129;-62
2022/10/21 06:58:45;;;;;;;11.52;3.92;;;;;;;8.87;100.00;98915.66;5174043;27;20046;-63
2022/10/21 07:01:13;;;;;;;21.85;6.00;;;;;;;9.07;100.00;98908.25;5173887;27;20501;-62
2022/10/21 07:03:39;;;;;;;24.00;3.38;;;;;;;9.07;100.00;98899.25;5172159;27;20178;-61
2022/10/21 07:06:05;;;;;;;44.63;7.72;;;;;;;8.98;100.00;98898.69;5174318;27;20050;-62
2022/10/21 07:08:33;;;;;;;31.08;5.35;;;;;;;8.98;100.00;98904.16;5173957;27;20497;-62
2022/10/21 07:11:00;;;;;;;30.85;5.68;;;;;;;9.18;100.00;98894.78;5173878;27;20049;-63
2022/10/21 07:13:26;;;;;;;26.77;7.95;;;;;;;9.35;100.00;98891.56;5174023;27;20054;-63
2022/10/21 07:15:59;;;;;;;49.03;9.60;;;;;;;9.46;100.00;98893.72;5173650;27;20501;-64
2022/10/21 07:18:25;;;;;;;28.65;5.50;;;;;;;9.54;100.00;98906.38;5174037;27;20050;-64
2022/10/21 07:20:52;;;;;;;24.02;4.85;;;;;;;9.66;100.00;98917.94;5173680;27;20050;-63
2022/10/21 07:23:18;;;;;;;31.98;5.05;;;;;;;9.65;100.00;98918.28;5173890;27;20054;-63
2022/10/21 07:25:44;;;;;;;36.05;5.32;;;;;;;9.72;100.00;98920.38;5173618;27;20069;-61
2022/10/21 07:28:11;;;;;;;40.60;10.35;;;;;;;9.65;100.00;98935.50;5173591;27;20046;-63
2022/10/21 07:30:39;;;;;;;7.20;3.10;;;;;;;9.65;100.00;98921.03;5173227;27;20132;-62
2022/10/21 07:33:05;;;;;;;21.92;4.43;;;;;;;9.60;100.00;98932.31;5173484;27;20046;-63
2022/10/21 07:35:31;;;;;;;7.97;2.72;;;;;;;9.56;100.00;98925.94;5173553;27;20055;-63
2022/10/21 07:37:57;;;;;;;34.85;5.57;;;;;;;9.56;100.00;98920.47;5173368;27;20399;-60
2022/10/21 07:40:23;;;;;;;59.25;9.90;;;;;;;10.40;100.00;98891.34;5173518;27;20095;-62
2022/10/21 07:42:50;;;;;;;93.18;11.07;;;;;;;11.38;100.00;98890.16;5173357;27;20067;-60
2022/10/21 07:45:17;;;;;;;102.10;10.65;;;;;;;12.25;100.00;98912.50;5173799;27;20042;-61
2022/10/21 07:47:43;;;;;;;20.50;4.03;;;;;;;12.04;100.00;99002.25;5173132;27;20042;-61
2022/10/21 07:50:09;;;;;;;82.00;9.95;;;;;;;12.50;100.00;98983.41;5173533;27;20050;-62
2022/10/21 07:52:37;;;;;;;12.90;3.58;;;;;;;12.06;100.00;99099.59;5173424;27;20065;-63
2022/10/21 07:55:04;;;;;;;4.35;2.75;;;;;;;11.39;100.00;99086.63;5173350;27;20406;-63
2022/10/21 07:57:30;;;;;;;11.48;2.70;;;;;;;10.62;100.00;99052.19;5172991;27;20136;-63
2022/10/21 07:59:56;;;;;;;20.67;3.53;;;;;;;10.59;100.00;99000.84;5173785;27;20519;-63
2022/10/21 08:02:23;;;;;;;3.33;2.05;;;;;;;10.52;100.00;98973.34;5173424;27;20077;-64
2022/10/21 08:04:51;;;;;;;5.93;2.63;;;;;;;10.50;100.00;98964.72;5173218;27;20463;-64
2022/10/21 08:07:17;;;;;;;8.40;3.03;;;;;;;10.01;100.00;98946.28;5172882;27;20856;-62
2022/10/21 08:09:43;;;;;;;9.18;2.90;;;;;;;10.05;100.00;98920.53;5172109;27;20093;-63
2022/10/21 08:12:09;;;;;;;7.65;2.30;;;;;;;10.05;100.00;98927.97;5173017;27;20067;-66
2022/10/21 08:14:35;;;;;;;2.15;1.65;;;;;;;10.02;100.00;98948.66;5172655;27;20098;-63
2022/10/21 08:17:03;;;;;;;6.32;2.60;;;;;;;9.99;100.00;98948.59;5172953;27;20189;-63
2022/10/21 08:19:30;;;;;;;4.50;1.75;;;;;;;9.90;100.00;98932.44;5172705;27;20082;-63
2022/10/21 08:21:57;;;;;;;10.35;3.50;;;;;;;10.11;100.00;98905.38;5172352;27;20064;-64
2022/10/21 08:24:24;;;;;;;4.85;1.92;;;;;;;10.13;100.00;98932.41;5172803;27;20098;-63
2022/10/21 08:26:50;;;;;;;6.93;2.92;;;;;;;9.96;100.00;98954.81;5172877;27;20050;-63
2022/10/21 08:29:17;;;;;;;7.18;2.28;;;;;;;10.03;100.00;98946.69;5172500;27;20042;-63
2022/10/21 08:31:43;;;;;;;8.55;2.35;;;;;;;10.08;100.00;98936.22;5172667;27;20053;-63
2022/10/21 08:34:09;;;;;;;9.20;1.98;;;;;;;10.17;100.00;98948.91;5172670;27;20064;-63
2022/10/21 08:36:37;;;;;;;4.70;2.08;;;;;;;10.20;100.00;98929.78;5172713;27;20114;-64
2022/10/21 08:39:04;;;;;;;7.90;2.47;;;;;;;10.13;100.00;98951.59;5172833;27;20084;-63
2022/10/21 08:41:52;;;;;;;5.55;3.13;;;;;;;10.13;100.00;98937.88;5172283;27;20042;-64
2022/10/21 08:44:29;;;;;;;4.57;1.60;;;;;;;10.28;100.00;98947.13;5172458;27;20046;-64
2022/10/21 08:47:01;;;;;;;3.20;1.60;;;;;;;10.24;100.00;98968.97;5172277;27;20054;-64
2022/10/21 08:49:30;;;;;;;4.60;1.90;;;;;;;10.30;100.00;98989.47;5172202;27;20421;-63
2022/10/21 08:52:02;;;;;;;1.77;1.10;;;;;;;10.35;100.00;99030.22;5172272;27;20424;-63
2022/10/21 08:54:36;;;;;;;4.75;1.67;;;;;;;10.45;100.00;99033.53;5172348;27;20050;-64
2022/10/21 08:57:03;;;;;;;24.05;2.88;;;;;;;10.59;100.00;99036.47;5172221;27;20046;-64
2022/10/21 08:59:29;;;;;;;4.70;2.25;;;;;;;10.67;100.00;99097.72;5172369;27;20042;-64
2022/10/21 09:02:03;;;;;;;7.80;1.75;;;;;;;10.77;100.00;99108.84;5172104;27;20429;-64
2022/10/21 09:04:43;;;;;;;4.90;1.50;;;;;;;10.67;100.00;99116.91;5172136;27;20060;-64
2022/10/21 09:07:22;;;;;;;7.65;1.98;;;;;;;10.88;100.00;99172.09;5172132;27;20050;-64
2022/10/21 09:09:56;;;;;;;7.13;1.80;;;;;;;10.95;100.00;99147.53;5172132;27;20050;-64
2022/10/21 09:12:32;;;;;;;6.80;1.93;;;;;;;10.82;100.00;99229.19;5172186;27;20054;-64
2022/10/21 09:15:22;;;;;;;3.15;1.55;;;;;;;10.87;100.00;99211.66;5171867;27;20302;-64
2022/10/21 09:17:58;;;;;;;6.57;1.30;;;;;;;10.81;100.00;99233.09;5172016;27;20085;-64
2022/10/21 09:20:37;;;;;;;3.70;1.20;;;;;;;11.01;100.00;99264.00;5171973;27;20093;-64
2022/10/21 09:23:17;;;;;;;2.78;1.13;;;;;;;11.02;100.00;99298.50;5175776;27;20523;-64
2022/10/21 09:25:53;;;;;;;6.00;1.45;;;;;;;10.83;100.00;99269.19;5175724;27;20050;-64
2022/10/21 09:28:20;;;;;;;6.65;3.75;;;;;;;11.07;100.00;99270.00;5175679;27;20148;-64
2022/10/21 09:30:47;;;;;;;2.83;1.45;;;;;;;11.04;100.00;99298.94;5175672;27;20046;-64
2022/10/21 09:33:21;;;;;;;2.92;1.80;;;;;;;10.90;100.00;99284.19;5175388;27;20560;-64
2022/10/21 09:35:52;;;;;;;9.02;1.90;;;;;;;10.81;100.00;99257.78;5175216;27;20043;-64
2022/10/21 09:38:24;;;;;;;1.40;1.15;;;;;;;10.99;100.00;99273.75;5175410;27;20046;-64
2022/10/21 09:40:58;;;;;;;6.45;1.40;;;;;;;10.84;100.00;99272.72;5175485;27;20143;-64
2022/10/21 09:43:26;;;;;;;5.30;1.30;;;;;;;11.09;100.00;99270.41;5175230;27;20042;-64
2022/10/21 09:45:52;;;;;;;0.93;0.90;;;;;;;11.03;100.00;99283.66;5175130;27;20114;-64
2022/10/21 09:48:35;;;;;;;5.20;2.10;;;;;;;10.73;100.00;99269.78;5175163;27;20058;-64
2022/10/21 09:51:09;;;;;;;3.05;2.22;;;;;;;10.67;100.00;99232.06;5175316;27;20062;-64
2022/10/21 09:53:44;;;;;;;2.90;1.55;;;;;;;10.95;100.00;99254.50;5175290;27;20062;-64
2022/10/21 09:56:15;;;;;;;5.50;1.63;;;;;;;11.05;100.00;99277.78;5175021;27;20042;-64
2022/10/21 09:58:49;;;;;;;5.57;1.88;;;;;;;10.87;100.00;99285.72;5175335;27;20119;-64
2022/10/21 10:01:17;;;;;;;8.05;1.80;;;;;;;10.76;100.00;99254.53;5174994;27;20145;-64
2022/10/21 10:03:46;;;;;;;4.13;1.80;;;;;;;10.84;100.00;99287.22;5174871;27;20412;-64
2022/10/21 10:06:12;;;;;;;1.88;1.13;;;;;;;10.84;100.00;99292.72;5175008;27;20046;-64
2022/10/21 10:08:41;;;;;;;6.95;2.03;;;;;;;10.81;100.00;99262.47;5174943;27;20054;-64
2022/10/21 10:11:15;;;;;;;6.70;1.80;;;;;;;10.64;100.00;99271.97;5174848;27;20057;-64
2022/10/21 10:13:44;;;;;;;6.07;2.08;;;;;;;10.75;100.00;99272.94;5174907;27;20463;-64
2022/10/21 10:16:26;;;;;;;2.60;1.73;;;;;;;10.64;100.00;99252.75;5174617;27;20081;-64
2022/10/21 10:19:08;;;;;;;4.13;1.83;;;;;;;10.72;100.00;99256.44;5174831;27;20043;-64
2022/10/21 10:21:35;;;;;;;4.43;1.70;;;;;;;10.70;100.00;99251.31;5175142;27;20068;-64
2022/10/21 10:24:02;;;;;;;3.28;1.63;;;;;;;10.67;100.00;99235.59;5174504;27;20077;-64
2022/10/21 10:26:30;;;;;;;4.15;1.45;;;;;;;10.70;100.00;99226.63;5174823;27;20134;-64
2022/10/21 10:29:02;;;;;;;6.05;1.77;;;;;;;10.69;100.00;99218.75;5174515;27;20498;-64
2022/10/21 10:31:33;;;;;;;5.68;1.65;;;;;;;10.47;100.00;99223.88;5174930;27;20043;-64
2022/10/21 10:34:02;;;;;;;4.03;1.73;;;;;;;10.66;100.00;99200.28;5173912;27;20085;-64
2022/10/21 10:36:33;;;;;;;3.47;1.77;;;;;;;10.24;100.00;99177.19;5174570;27;20482;-65
2022/10/21 10:39:01;;;;;;;4.65;1.52;;;;;;;10.55;100.00;99176.22;5174733;27;20516;-64
2022/10/21 10:41:33;;;;;;;9.80;1.67;;;;;;;10.55;100.00;99197.38;5174475;27;20050;-64
2022/10/21 10:44:01;;;;;;;3.13;1.63;;;;;;;10.52;100.00;99170.69;5174273;27;20537;-64
2022/10/21 10:46:36;;;;;;;9.75;1.63;;;;;;;10.29;100.00;99165.94;5174116;27;20050;-64
2022/10/21 10:49:06;;;;;;;3.13;1.60;;;;;;;10.32;100.00;99154.28;5174482;27;20048;-65
2022/10/21 10:51:36;;;;;;;3.45;1.80;;;;;;;10.49;100.00;99176.88;5174487;27;20042;-64
2022/10/21 10:54:16;;;;;;;7.20;2.42;;;;;;;10.57;100.00;99175.88;5174142;27;20057;-64
2022/10/21 10:56:48;;;;;;;10.68;2.65;;;;;;;10.58;100.00;99150.03;5174188;27;20046;-64
2022/10/21 10:59:21;;;;;;;7.22;3.40;;;;;;;10.36;100.00;99121.44;5174373;27;20122;-64
2022/10/21 11:01:59;;;;;;;10.05;2.97;;;;;;;10.33;100.00;99103.03;5156464;27;20090;-65
2022/10/21 11:04:33;;;;;;;10.50;3.03;;;;;;;10.42;100.00;99091.81;5173948;27;20056;-65
2022/10/21 11:07:09;;;;;;;6.75;2.88;;;;;;;10.44;100.00;99075.81;5174073;27;20485;-65
2022/10/21 11:09:35;;;;;;;17.23;4.38;;;;;;;10.48;100.00;99074.69;5173960;27;20413;-65
2022/10/21 11:12:07;;;;;;;12.85;3.70;;;;;;;10.31;100.00;99047.78;5174233;27;20050;-65
2022/10/21 11:14:33;;;;;;;13.10;3.33;;;;;;;10.30;100.00;99007.84;5174267;27;20050;-64
2022/10/21 11:17:08;;;;;;;5.45;3.65;;;;;;;10.18;100.00;99047.13;5174426;27;20615;-65
2022/10/21 11:19:44;;;;;;;10.02;4.32;;;;;;;10.31;100.00;99045.03;5174275;27;20085;-64
2022/10/21 11:22:15;;;;;;;8.35;3.97;;;;;;;10.13;100.00;99014.59;5173896;27;20182;-64
2022/10/21 11:25:16;;;;;;;15.85;4.95;;;;;;;10.14;100.00;99007.94;5174170;27;20891;-64
2022/10/21 11:28:01;;;;;;;11.82;3.55;;;;;;;9.89;100.00;98986.38;5173681;27;20042;-65
2022/10/21 11:30:38;;;;;;;8.43;3.95;;;;;;;9.86;100.00;98992.59;5173861;27;20088;-65
2022/10/21 11:33:13;;;;;;;7.88;3.13;;;;;;;9.98;100.00;98990.84;5173963;27;20471;-64
2022/10/21 11:35:49;;;;;;;11.10;2.70;;;;;;;10.28;100.00;99002.72;5173507;27;20046;-64
2022/10/21 11:38:47;;;;;;;11.75;3.30;;;;;;;10.28;100.00;99005.47;5173464;27;20061;-65